Time;durP1;ratioP1;P1;durP2;ratioP2;P2;SDS_P1;SDS_P2;PMS_P1;PMS_P2;Temp;Humidity;BMP_temperature;BMP_pressure;BME280_temperature;BME280_humidity;BME280_pressure;Samples;Min_cycle;Max_cycle;Signal;HPM_P1;HPM_P2
2022/10/10 00:00:37;;;;;;;8.40;5.40;;;;;;;-145.18;100.00;46672.13;6217512;23;20012;-69
2022/10/10 00:03:04;;;;;;;9.03;5.63;;;;;;;-145.18;100.00;46666.25;6243450;23;20323;-68
2022/10/10 00:05:29;;;;;;;11.60;6.10;;;;;;;-145.18;100.00;46670.16;6243810;23;20012;-67
2022/10/10 00:07:55;;;;;;;9.80;5.80;;;;;;;-145.18;100.00;46668.22;6244071;23;20650;-68
2022/10/10 00:10:20;;;;;;;9.83;6.17;;;;;;;-145.18;100.00;46672.13;6243858;23;20008;-68
2022/10/10 00:12:46;;;;;;;13.37;6.20;;;;;;;-145.18;100.00;46674.06;6243719;23;20003;-68
2022/10/10 00:15:12;;;;;;;13.83;6.77;;;;;;;-145.18;100.00;46670.16;6244154;23;20012;-68
2022/10/10 00:17:39;;;;;;;11.97;7.03;;;;;;;-145.18;100.00;46674.06;6243222;23;20012;-68
2022/10/10 00:20:05;;;;;;;9.60;5.83;;;;;;;-145.18;100.00;46676.03;6243907;23;20226;-68
2022/10/10 00:22:31;;;;;;;13.67;5.97;;;;;;;-145.18;100.00;46674.06;6243476;23;20240;-67
2022/10/10 00:24:56;;;;;;;8.30;6.03;;;;;;;-145.18;100.00;46679.94;6244149;23;20254;-68
2022/10/10 00:27:22;;;;;;;16.60;6.40;;;;;;;-145.18;100.00;46679.94;6216054;23;20039;-67
2022/10/10 00:29:47;;;;;;;12.43;6.33;;;;;;;-145.18;100.00;46681.88;6244350;23;20378;-68
2022/10/10 00:32:12;;;;;;;9.53;5.63;;;;;;;-145.18;100.00;46676.03;6243479;23;20040;-68
2022/10/10 00:34:38;;;;;;;12.13;5.80;;;;;;;-145.18;100.00;46679.94;6243651;23;20430;-68
2022/10/10 00:37:03;;;;;;;12.80;5.80;;;;;;;-145.18;100.00;46679.94;6243198;23;20503;-68
2022/10/10 00:39:28;;;;;;;11.27;6.13;;;;;;;-145.18;100.00;46679.94;6243861;23;20016;-68
2022/10/10 00:41:54;;;;;;;11.40;5.50;;;;;;;-145.18;100.00;46679.94;6243575;23;20005;-68
2022/10/10 00:44:19;;;;;;;10.30;6.50;;;;;;;-145.18;100.00;46679.94;6243810;23;20051;-68
2022/10/10 00:46:44;;;;;;;13.80;5.77;;;;;;;-145.18;100.00;46679.94;6243291;23;20040;-68
2022/10/10 00:49:16;;;;;;;9.53;5.70;;;;;;;-145.18;100.00;46681.88;6243787;23;20008;-68
2022/10/10 00:51:47;;;;;;;11.80;5.80;;;;;;;-145.18;100.00;46689.69;6243435;23;20004;-68
2022/10/10 00:54:16;;;;;;;13.90;6.37;;;;;;;-145.18;100.00;46695.56;6243558;23;20659;-68
2022/10/10 00:57:10;;;;;;;11.93;6.73;;;;;;;-145.18;100.00;46681.88;6243406;23;20245;-68
2022/10/10 00:59:38;;;;;;;13.47;6.33;;;;;;;-145.18;100.00;46691.66;6239309;23;20238;-68
2022/10/10 01:02:04;;;;;;;12.93;6.90;;;;;;;-145.18;100.00;46697.50;6243267;23;20312;-68
2022/10/10 01:04:31;;;;;;;14.33;6.10;;;;;;;-145.18;100.00;46685.78;6243200;23;20709;-68
2022/10/10 01:06:58;;;;;;;10.70;6.10;;;;;;;-145.18;100.00;46687.75;6243336;23;20091;-68
2022/10/10 01:09:24;;;;;;;14.27;6.67;;;;;;;-145.18;100.00;46695.56;6243549;23;20551;-68
2022/10/10 01:12:12;;;;;;;8.67;6.00;;;;;;;-145.18;100.00;46683.84;6243248;23;20226;-68
2022/10/10 01:14:51;;;;;;;10.83;6.47;;;;;;;-145.18;100.00;46679.94;6243506;23;20590;-68
2022/10/10 01:17:52;;;;;;;16.43;7.70;;;;;;;-145.18;100.00;46689.69;6242575;23;20294;-68
2022/10/10 01:20:27;;;;;;;12.00;5.83;;;;;;;-145.18;100.00;46693.59;6223118;23;20230;-68
2022/10/10 01:23:11;;;;;;;10.10;6.47;;;;;;;-145.18;100.00;46689.69;6243180;23;20228;-68
2022/10/10 01:26:09;;;;;;;11.80;7.20;;;;;;;-145.18;100.00;46691.66;6243359;23;20670;-68
2022/10/10 01:28:40;;;;;;;10.20;6.87;;;;;;;-145.18;100.00;46695.56;6243180;23;20213;-68
2022/10/10 01:31:09;;;;;;;14.50;6.50;;;;;;;-145.18;100.00;46693.59;6243290;23;20233;-68
2022/10/10 01:33:49;;;;;;;13.47;6.40;;;;;;;-145.18;100.00;46693.59;6242655;23;20245;-68
2022/10/10 01:36:31;;;;;;;10.13;6.00;;;;;;;-145.18;100.00;46693.59;6242932;23;20382;-68
2022/10/10 01:39:05;;;;;;;13.97;6.40;;;;;;;-145.18;100.00;46699.47;6243481;23;20221;-68
2022/10/10 01:41:37;;;;;;;12.10;6.47;;;;;;;-145.18;100.00;46687.75;6242479;23;20331;-68
2022/10/10 01:44:03;;;;;;;11.60;6.27;;;;;;;-145.18;100.00;46689.69;6243334;23;20582;-68
2022/10/10 01:46:28;;;;;;;11.07;6.43;;;;;;;-145.18;100.00;46689.69;6242025;23;20283;-68
2022/10/10 01:48:57;;;;;;;12.17;6.70;;;;;;;-145.18;100.00;46687.75;6243001;23;20475;-68
2022/10/10 01:51:50;;;;;;;9.07;6.37;;;;;;;-145.18;100.00;46683.84;6242641;23;20004;-68
2022/10/10 01:54:24;;;;;;;13.57;6.83;;;;;;;-145.18;100.00;46693.59;6243495;23;20222;-68
2022/10/10 01:56:55;;;;;;;10.77;6.63;;;;;;;-145.18;100.00;46691.66;6242858;23;20253;-68
2022/10/10 01:59:54;;;;;;;11.77;6.60;;;;;;;-145.18;100.00;46685.78;6242981;23;20229;-68
2022/10/10 02:02:35;;;;;;;9.80;6.67;;;;;;;-145.18;100.00;46691.66;6242406;23;20304;-68
2022/10/10 02:05:12;;;;;;;17.43;6.93;;;;;;;-145.18;100.00;46685.78;6243244;23;20626;-68
2022/10/10 02:07:57;;;;;;;9.80;6.33;;;;;;;-145.18;100.00;46687.75;6242656;23;20249;-68
2022/10/10 02:10:34;;;;;;;12.63;6.30;;;;;;;-145.18;100.00;46689.69;6242839;23;20214;-68
2022/10/10 02:13:03;;;;;;;10.77;6.70;;;;;;;-145.18;100.00;46683.84;6242533;23;20275;-67
2022/10/10 02:15:36;;;;;;;12.27;6.40;;;;;;;-145.18;100.00;46687.75;6242661;23;20257;-68
2022/10/10 02:18:06;;;;;;;16.67;6.53;;;;;;;-145.18;100.00;46689.69;6242409;23;20253;-68
2022/10/10 02:20:32;;;;;;;13.00;7.13;;;;;;;-145.18;100.00;46687.75;6242609;23;20236;-68
2022/10/10 02:22:58;;;;;;;11.17;6.60;;;;;;;-145.18;100.00;46691.66;6242931;23;20249;-68
2022/10/10 02:25:28;;;;;;;11.87;7.00;;;;;;;-145.18;100.00;46687.75;6242817;23;20555;-68
2022/10/10 02:28:08;;;;;;;10.83;7.13;;;;;;;-145.18;100.00;46687.75;6243071;23;20266;-68
2022/10/10 02:30:37;;;;;;;10.43;6.87;;;;;;;-145.18;100.00;46689.69;6241093;23;20714;-68
2022/10/10 02:33:04;;;;;;;11.70;7.50;;;;;;;-145.18;100.00;46685.78;6242775;23;20752;-68
2022/10/10 02:35:33;;;;;;;11.87;6.83;;;;;;;-145.18;100.00;46685.78;6242763;23;20226;-68
2022/10/10 02:38:02;;;;;;;12.53;6.90;;;;;;;-145.18;100.00;46674.06;6242492;23;20261;-68
2022/10/10 02:40:30;;;;;;;13.03;7.33;;;;;;;-145.18;100.00;46679.94;6242532;23;20304;-68
2022/10/10 02:42:59;;;;;;;12.20;6.57;;;;;;;-145.18;100.00;46683.84;6242503;23;20234;-68
2022/10/10 02:45:27;;;;;;;13.57;7.00;;;;;;;-145.18;100.00;46679.94;6242897;23;20256;-68
2022/10/10 02:47:52;;;;;;;12.80;7.07;;;;;;;-145.18;100.00;46681.88;6242529;23;20233;-68
2022/10/10 02:50:18;;;;;;;11.37;6.93;;;;;;;-145.18;100.00;46676.03;6242575;23;20242;-68
2022/10/10 02:52:43;;;;;;;14.73;7.80;;;;;;;-145.18;100.00;46679.94;6242245;23;20004;-68
2022/10/10 02:55:09;;;;;;;11.53;7.30;;;;;;;-145.18;100.00;46679.94;6241554;23;20015;-67
2022/10/10 02:57:34;;;;;;;13.10;7.00;;;;;;;-145.18;100.00;46681.88;6242203;23;20040;-68
2022/10/10 03:00:00;;;;;;;12.47;6.80;;;;;;;-145.18;100.00;46677.97;6244253;23;20010;-68
2022/10/10 03:38:31;;;;;;;14.77;6.67;;;;;;;-145.18;100.00;46672.13;6212734;23;20025;-69
2022/10/10 03:40:57;;;;;;;13.23;7.67;;;;;;;-145.18;100.00;46676.03;6213960;23;20290;-69
2022/10/10 03:43:22;;;;;;;11.57;7.53;;;;;;;-145.18;100.00;46676.03;6213089;23;20012;-69
2022/10/10 03:45:48;;;;;;;11.17;7.63;;;;;;;-145.18;100.00;46676.03;6213489;23;20008;-69
2022/10/10 03:48:14;;;;;;;10.67;6.87;;;;;;;-145.18;100.00;46674.06;6213088;23;20095;-69
2022/10/10 03:50:39;;;;;;;12.07;7.10;;;;;;;-145.18;100.00;46676.03;6214026;23;20000;-69
2022/10/10 03:53:06;;;;;;;14.40;7.33;;;;;;;-145.18;100.00;46670.16;6212987;23;20290;-69
2022/10/10 03:55:31;;;;;;;9.20;6.13;;;;;;;-145.18;100.00;46677.97;6213742;23;20009;-69
2022/10/10 03:57:56;;;;;;;13.07;7.17;;;;;;;-145.18;100.00;46674.06;6213864;23;20261;-69
2022/10/10 04:00:23;;;;;;;14.07;7.80;;;;;;;-145.18;100.00;46676.03;6213631;23;20005;-69
2022/10/10 04:02:48;;;;;;;13.77;7.17;;;;;;;-145.18;100.00;46670.16;6213747;23;20028;-69
2022/10/10 04:05:13;;;;;;;13.43;7.03;;;;;;;-145.18;100.00;46670.16;6214046;23;20543;-69
2022/10/10 04:07:40;;;;;;;11.93;7.50;;;;;;;-145.18;100.00;46672.13;6213700;23;20389;-69
2022/10/10 04:10:06;;;;;;;11.33;6.90;;;;;;;-145.18;100.00;46668.22;6214028;23;20008;-69
2022/10/10 04:12:32;;;;;;;11.80;7.10;;;;;;;-145.18;100.00;46670.16;6213357;23;20288;-69
2022/10/10 04:14:58;;;;;;;14.40;7.07;;;;;;;-145.18;100.00;46668.22;6214225;23;20266;-69
2022/10/10 04:17:23;;;;;;;10.20;6.77;;;;;;;-145.18;100.00;46670.16;6213035;23;20040;-69
2022/10/10 04:19:48;;;;;;;10.47;6.47;;;;;;;-145.18;100.00;46668.22;6214055;23;20009;-69
2022/10/10 04:22:15;;;;;;;12.13;6.40;;;;;;;-145.18;100.00;46668.22;6213144;23;20076;-70
2022/10/10 04:24:41;;;;;;;9.07;6.53;;;;;;;-145.18;100.00;46672.13;6214225;23;20342;-69
2022/10/10 04:27:06;;;;;;;10.17;6.63;;;;;;;-145.18;100.00;46670.16;6213223;23;20230;-70
2022/10/10 04:29:31;;;;;;;10.43;6.30;;;;;;;-145.18;100.00;46670.16;6213565;23;20008;-69
2022/10/10 04:31:57;;;;;;;9.67;6.57;;;;;;;-145.18;100.00;46668.22;6213812;23;20009;-70
2022/10/10 04:34:22;;;;;;;15.33;6.77;;;;;;;-145.18;100.00;46668.22;6211420;23;20315;-70
2022/10/10 04:36:47;;;;;;;14.23;6.87;;;;;;;-145.18;100.00;46664.31;6205070;23;20025;-70
2022/10/10 04:39:13;;;;;;;13.23;6.63;;;;;;;-145.18;100.00;46666.25;6180136;23;20019;-70
2022/10/10 04:41:38;;;;;;;15.77;7.80;;;;;;;-145.18;100.00;46666.25;6183077;23;20044;-70
2022/10/10 04:44:03;;;;;;;12.70;7.00;;;;;;;-145.18;100.00;46658.44;6182411;23;20064;-70
2022/10/10 04:46:29;;;;;;;12.23;6.93;;;;;;;-145.18;100.00;46662.34;6183584;23;20647;-70
2022/10/10 04:48:54;;;;;;;10.10;6.90;;;;;;;-145.18;100.00;46668.22;6180876;23;20304;-70
2022/10/10 04:51:19;;;;;;;14.80;7.70;;;;;;;-145.18;100.00;46664.31;6182587;23;20131;-69
2022/10/10 04:53:45;;;;;;;17.67;7.77;;;;;;;-145.18;100.00;46668.22;6182344;23;20069;-70
2022/10/10 04:56:10;;;;;;;13.87;7.43;;;;;;;-145.18;100.00;46664.31;6183207;23;20013;-70
2022/10/10 04:58:35;;;;;;;16.77;7.57;;;;;;;-145.18;100.00;46668.22;6182350;23;20343;-70
2022/10/10 05:01:01;;;;;;;14.27;7.73;;;;;;;-145.18;100.00;46662.34;6183301;23;20069;-70
2022/10/10 05:03:26;;;;;;;16.43;8.10;;;;;;;-145.18;100.00;46656.50;6181082;23;20044;-69
2022/10/10 05:05:52;;;;;;;18.53;7.37;;;;;;;-145.18;100.00;46660.41;6182836;23;20020;-69
2022/10/10 05:08:18;;;;;;;16.17;7.90;;;;;;;-145.18;100.00;46660.41;6182367;23;20017;-69
2022/10/10 05:10:44;;;;;;;16.50;8.27;;;;;;;-145.18;100.00;46660.41;6182808;23;20012;-69
2022/10/10 05:13:11;;;;;;;16.93;8.10;;;;;;;-145.18;100.00;46660.41;6182246;23;20231;-69
2022/10/10 05:15:38;;;;;;;16.90;8.47;;;;;;;-145.18;100.00;46656.50;6183134;23;20254;-69
2022/10/10 05:18:03;;;;;;;13.10;7.50;;;;;;;-145.18;100.00;46650.63;6182340;23;20255;-70
2022/10/10 05:20:30;;;;;;;18.97;8.33;;;;;;;-145.18;100.00;46660.41;6183513;23;20250;-70
2022/10/10 05:22:55;;;;;;;17.13;8.90;;;;;;;-145.18;100.00;46660.41;6182650;23;20027;-69
2022/10/10 05:25:21;;;;;;;19.10;8.07;;;;;;;-145.18;100.00;46652.59;6182740;23;20691;-70
2022/10/10 05:27:46;;;;;;;12.60;8.07;;;;;;;-145.18;100.00;46656.50;6180794;23;20013;-70
2022/10/10 05:30:12;;;;;;;16.87;7.67;;;;;;;-145.18;100.00;46662.34;6181341;23;20050;-70
2022/10/10 05:32:38;;;;;;;15.33;8.10;;;;;;;-145.18;100.00;46660.41;6182258;23;20032;-70
2022/10/10 05:35:04;;;;;;;15.47;7.70;;;;;;;-145.18;100.00;46656.50;6182246;23;20282;-70
2022/10/10 05:37:30;;;;;;;12.50;7.67;;;;;;;-145.18;100.00;46656.50;6182274;23;20021;-70
2022/10/10 05:39:56;;;;;;;17.43;8.00;;;;;;;-145.18;100.00;46660.41;6182875;23;20017;-70
2022/10/10 05:42:21;;;;;;;13.23;7.40;;;;;;;-145.18;100.00;46660.41;6182263;23;20547;-70
2022/10/10 05:44:47;;;;;;;12.00;7.60;;;;;;;-145.18;100.00;46662.34;6182542;23;20016;-70
2022/10/10 05:47:13;;;;;;;15.43;7.77;;;;;;;-145.18;100.00;46656.50;6182570;23;20005;-70
2022/10/10 05:49:38;;;;;;;12.47;7.77;;;;;;;-145.18;100.00;46654.53;6182409;23;20040;-70
2022/10/10 05:52:04;;;;;;;15.00;7.43;;;;;;;-145.18;100.00;46654.53;6182769;23;20235;-70
2022/10/10 05:54:29;;;;;;;12.90;7.67;;;;;;;-145.18;100.00;46650.63;6155800;23;20009;-70
2022/10/10 05:56:54;;;;;;;16.27;7.93;;;;;;;-145.18;100.00;46656.50;6182669;23;20013;-70
2022/10/10 05:59:20;;;;;;;17.87;8.20;;;;;;;-145.18;100.00;46658.44;6182002;23;20036;-70
2022/10/10 06:01:45;;;;;;;14.03;7.87;;;;;;;-145.18;100.00;46660.41;6182980;23;20008;-70
2022/10/10 06:04:10;;;;;;;12.27;7.57;;;;;;;-145.18;100.00;46650.63;6181933;23;20792;-70
2022/10/10 06:06:36;;;;;;;17.83;8.67;;;;;;;-145.18;100.00;46656.50;6182306;23;20008;-70
2022/10/10 06:09:01;;;;;;;13.50;8.53;;;;;;;-145.18;100.00;46654.53;6182091;23;20034;-71
2022/10/10 06:11:28;;;;;;;19.00;9.03;;;;;;;-145.18;100.00;46656.50;6181840;23;20020;-70
2022/10/10 06:13:54;;;;;;;13.50;7.50;;;;;;;-145.18;100.00;46656.50;6181176;23;20009;-70
2022/10/10 06:16:21;;;;;;;11.97;7.77;;;;;;;-145.18;100.00;46658.44;6182243;23;20228;-70
2022/10/10 06:18:46;;;;;;;14.63;8.00;;;;;;;-145.18;100.00;46656.50;6182307;23;20005;-70
2022/10/10 06:21:12;;;;;;;18.57;7.53;;;;;;;-145.18;100.00;46664.31;6182354;23;20258;-70
2022/10/10 06:23:37;;;;;;;15.57;7.70;;;;;;;-145.18;100.00;46654.53;6182227;23;20012;-70
2022/10/10 06:26:03;;;;;;;13.93;7.33;;;;;;;-145.18;100.00;46660.41;6182331;23;20012;-70
2022/10/10 06:28:29;;;;;;;12.37;7.73;;;;;;;-145.18;100.00;46658.44;6181945;23;20017;-70
2022/10/10 06:30:59;;;;;;;14.00;7.80;;;;;;;-145.18;100.00;46664.31;6182844;23;20012;-70
2022/10/10 06:33:25;;;;;;;16.40;9.17;;;;;;;-145.18;100.00;46654.53;6182528;23;20219;-70
2022/10/10 06:35:51;;;;;;;17.57;9.10;;;;;;;-145.18;100.00;46658.44;6186059;23;20223;-70
2022/10/10 06:38:17;;;;;;;23.27;8.33;;;;;;;-145.18;100.00;46654.53;6184393;23;20341;-70
2022/10/10 06:40:43;;;;;;;15.87;7.87;;;;;;;-145.18;100.00;46654.53;6186243;23;20083;-70
2022/10/10 06:43:10;;;;;;;14.70;7.83;;;;;;;-145.18;100.00;46650.63;6185165;23;20001;-70
2022/10/10 06:45:37;;;;;;;13.67;7.37;;;;;;;-145.18;100.00;46654.53;6185608;23;20711;-70
2022/10/10 06:48:03;;;;;;;13.63;7.23;;;;;;;-145.18;100.00;46652.59;6185336;23;20234;-70
2022/10/10 06:50:28;;;;;;;17.03;7.50;;;;;;;-145.18;100.00;46652.59;6185271;23;20235;-70
2022/10/10 06:52:53;;;;;;;11.80;7.63;;;;;;;-145.18;100.00;46652.59;6181280;23;20009;-70
2022/10/10 06:55:19;;;;;;;15.73;7.83;;;;;;;-145.18;100.00;46650.63;6184248;23;20019;-70
2022/10/10 06:57:44;;;;;;;13.90;8.17;;;;;;;-145.18;100.00;46650.63;6184187;23;20017;-70
2022/10/10 07:00:11;;;;;;;14.67;7.80;;;;;;;-145.18;100.00;46650.63;6184151;23;20742;-70
2022/10/10 07:02:39;;;;;;;15.33;7.50;;;;;;;-145.18;100.00;46652.59;6184374;23;20016;-70
2022/10/10 07:05:12;;;;;;;20.60;8.33;;;;;;;-145.18;100.00;46650.63;6181438;23;20223;-70
2022/10/10 07:07:41;;;;;;;23.10;9.17;;;;;;;-145.18;100.00;46652.59;6185085;23;20751;-70
2022/10/10 07:10:09;;;;;;;18.27;8.63;;;;;;;-145.18;100.00;46648.69;6185041;23;20235;-70
2022/10/10 07:12:34;;;;;;;14.87;8.37;;;;;;;-145.18;100.00;46648.69;6184873;23;20231;-70
2022/10/10 07:15:00;;;;;;;13.20;7.47;;;;;;;-145.18;100.00;46650.63;6185169;23;20254;-70
2022/10/10 07:17:25;;;;;;;14.97;7.80;;;;;;;-145.18;100.00;46650.63;6184825;23;20016;-70
2022/10/10 07:19:51;;;;;;;12.97;8.63;;;;;;;-145.18;100.00;46650.63;6184977;23;20815;-70
2022/10/10 07:22:16;;;;;;;19.53;9.13;;;;;;;-145.18;100.00;46652.59;6184481;23;20346;-70
2022/10/10 07:24:42;;;;;;;12.87;7.30;;;;;;;-145.18;100.00;46650.63;6185165;23;20012;-70
2022/10/10 07:27:07;;;;;;;13.43;8.13;;;;;;;-145.18;100.00;46646.72;6184944;23;20044;-70
2022/10/10 07:29:33;;;;;;;13.57;7.97;;;;;;;-145.18;100.00;46652.59;6184707;23;20373;-70
2022/10/10 07:31:58;;;;;;;14.80;8.47;;;;;;;-145.18;100.00;46646.72;6185015;23;20009;-70
2022/10/10 07:34:23;;;;;;;15.93;7.83;;;;;;;-145.18;100.00;46652.59;6157944;23;20044;-70
2022/10/10 07:36:49;;;;;;;14.97;8.60;;;;;;;-145.18;100.00;46648.69;6185026;23;20043;-70
2022/10/10 07:39:22;;;;;;;16.10;8.77;;;;;;;-145.18;100.00;46654.53;6184393;23;20043;-70
2022/10/10 07:41:49;;;;;;;15.53;8.67;;;;;;;-145.18;100.00;46648.69;6185392;23;20334;-70
2022/10/10 07:44:14;;;;;;;16.73;8.37;;;;;;;-145.18;100.00;46648.69;6184168;23;20226;-70
2022/10/10 07:46:40;;;;;;;17.73;8.40;;;;;;;-145.18;100.00;46648.69;6183293;23;20241;-70
2022/10/10 07:49:05;;;;;;;18.33;8.30;;;;;;;-145.18;100.00;46654.53;6183371;23;20076;-69
2022/10/10 07:51:31;;;;;;;16.10;8.33;;;;;;;-145.18;100.00;46646.72;6183296;23;20005;-70
2022/10/10 07:53:56;;;;;;;13.13;7.87;;;;;;;-145.18;100.00;46648.69;6182650;23;20008;-70
2022/10/10 07:56:22;;;;;;;17.10;8.70;;;;;;;-145.18;100.00;46648.69;6183253;23;20013;-70
2022/10/10 07:58:48;;;;;;;14.00;8.43;;;;;;;-145.18;100.00;46650.63;6183229;23;20338;-70
2022/10/10 08:01:13;;;;;;;11.50;8.17;;;;;;;-145.18;100.00;46646.72;6182800;23;20060;-70
2022/10/10 08:03:39;;;;;;;17.17;8.37;;;;;;;-145.18;100.00;46644.78;6156642;23;20036;-70
2022/10/10 08:06:07;;;;;;;14.70;8.27;;;;;;;-145.18;100.00;46648.69;6183665;23;20005;-70
2022/10/10 08:08:33;;;;;;;17.27;8.53;;;;;;;-145.18;100.00;46648.69;6182797;23;20041;-70
2022/10/10 08:10:59;;;;;;;16.07;9.30;;;;;;;-145.18;100.00;46650.63;6183318;23;20231;-70
2022/10/10 08:13:25;;;;;;;15.60;9.97;;;;;;;-145.18;100.00;46650.63;6182662;23;20664;-70
2022/10/10 08:15:52;;;;;;;18.90;7.87;;;;;;;-145.18;100.00;46652.59;6183728;23;20020;-70
2022/10/10 08:18:17;;;;;;;17.10;8.57;;;;;;;-145.18;100.00;46652.59;6182521;23;20258;-70
2022/10/10 08:20:43;;;;;;;17.60;8.00;;;;;;;-145.18;100.00;46656.50;6183538;23;20227;-70
2022/10/10 08:23:08;;;;;;;13.33;7.70;;;;;;;-145.18;100.00;46662.34;6182668;23;20012;-70
2022/10/10 08:25:33;;;;;;;20.67;8.63;;;;;;;-145.18;100.00;46664.31;6183727;23;20017;-70
2022/10/10 08:27:59;;;;;;;13.53;7.23;;;;;;;-145.18;100.00;46666.25;6183149;23;20013;-70
2022/10/10 08:30:24;;;;;;;13.63;7.33;;;;;;;-145.18;100.00;46668.22;6183322;23;20009;-70
2022/10/10 08:32:49;;;;;;;17.13;7.13;;;;;;;-145.18;100.00;46672.13;6183170;23;20339;-70
2022/10/10 08:35:15;;;;;;;15.47;7.43;;;;;;;-145.18;100.00;46672.13;6182266;23;20028;-70
2022/10/10 08:37:40;;;;;;;12.73;6.50;;;;;;;-145.18;100.00;46668.22;6183442;23;20073;-70
2022/10/10 08:40:06;;;;;;;15.30;7.67;;;;;;;-145.18;100.00;46668.22;6182986;23;20005;-70
2022/10/10 08:42:48;;;;;;;15.60;7.67;;;;;;;-145.18;100.00;46668.22;6183317;23;20009;-70
2022/10/10 08:45:21;;;;;;;17.13;7.17;;;;;;;-145.18;100.00;46664.31;6182772;23;20001;-70
2022/10/10 08:48:10;;;;;;;15.93;7.07;;;;;;;-145.18;100.00;46664.31;6156803;23;20031;-70
2022/10/10 08:50:42;;;;;;;12.50;7.30;;;;;;;-145.18;100.00;46672.13;6183566;23;20012;-70
2022/10/10 08:53:27;;;;;;;16.03;7.63;;;;;;;-145.18;100.00;46672.13;6183001;23;20362;-71
2022/10/10 08:55:54;;;;;;;13.07;7.10;;;;;;;-145.18;100.00;46668.22;6183294;23;20005;-70
2022/10/10 08:58:26;;;;;;;16.43;7.90;;;;;;;-145.18;100.00;46670.16;6182162;23;20445;-70
2022/10/10 09:01:22;;;;;;;17.13;9.50;;;;;;;-145.18;100.00;46668.22;6183596;23;20366;-70
2022/10/10 09:03:50;;;;;;;20.58;8.52;;;;;;;-145.18;100.00;46666.25;6183154;23;20017;-71
2022/10/10 09:06:18;;;;;;;15.77;7.97;;;;;;;-145.18;100.00;46662.34;6183159;23;20009;-70
2022/10/10 09:09:05;;;;;;;16.43;7.93;;;;;;;-145.18;100.00;46666.25;6182567;23;20005;-70
2022/10/10 09:12:01;;;;;;;16.30;8.00;;;;;;;-145.18;100.00;46658.44;6183389;23;20009;-71
2022/10/10 09:14:51;;;;;;;32.30;9.60;;;;;;;-145.18;100.00;46652.59;6161789;23;20027;-71
2022/10/10 09:17:31;;;;;;;16.30;7.00;;;;;;;-145.18;100.00;46635.00;6183012;23;20017;-71
2022/10/10 09:20:06;;;;;;;21.00;8.20;;;;;;;-145.18;100.00;46603.75;6183015;23;20019;-71
2022/10/10 09:22:39;;;;;;;22.33;7.63;;;;;;;-145.18;100.00;46597.88;6182942;23;20001;-70
2022/10/10 09:25:17;;;;;;;12.63;6.57;;;;;;;-145.18;100.00;46593.97;6182509;23;20016;-70
2022/10/10 09:27:52;;;;;;;15.67;7.83;;;;;;;-145.18;100.00;46586.16;6183021;23;20001;-70
2022/10/10 09:30:19;;;;;;;13.77;6.65;;;;;;;-145.18;100.00;46593.97;6182425;23;20434;-70
2022/10/10 09:32:56;;;;;;;16.30;8.07;;;;;;;-145.18;100.00;46595.94;6182701;23;20517;-70
2022/10/10 09:35:27;;;;;;;11.53;7.50;;;;;;;-145.18;100.00;46601.78;6182469;23;20005;-70
2022/10/10 09:38:01;;;;;;;20.97;8.27;;;;;;;-145.18;100.00;46611.56;6182773;23;20047;-70
2022/10/10 09:40:35;;;;;;;21.37;8.97;;;;;;;-145.18;100.00;46599.84;6182512;23;20056;-70
2022/10/10 09:43:16;;;;;;;21.90;8.47;;;;;;;-145.18;100.00;46597.88;6182793;23;20012;-70
2022/10/10 09:45:52;;;;;;;20.13;8.47;;;;;;;-145.18;100.00;46597.88;6182792;23;20008;-70
2022/10/10 09:48:26;;;;;;;21.40;8.73;;;;;;;-145.18;100.00;46586.16;6182545;23;20005;-70
2022/10/10 09:50:52;;;;;;;15.83;7.20;;;;;;;-145.18;100.00;46564.69;6182837;23;20001;-70
2022/10/10 09:53:17;;;;;;;15.60;6.37;;;;;;;-145.18;100.00;46547.09;6181978;23;20512;-71
2022/10/10 09:55:45;;;;;;;14.60;7.50;;;;;;;-145.18;100.00;46541.25;6183368;23;20017;-71
2022/10/10 09:58:36;;;;;;;15.40;7.23;;;;;;;-145.18;100.00;46543.19;6181949;23;20008;-71
2022/10/10 10:01:21;;;;;;;17.53;6.67;;;;;;;-145.18;100.00;46545.16;6182707;23;20008;-71
2022/10/10 10:04:15;;;;;;;18.50;6.87;;;;;;;-145.18;100.00;46568.59;6182337;23;20009;-70
2022/10/10 10:06:50;;;;;;;15.27;6.70;;;;;;;-145.18;100.00;46562.72;6182833;23;20032;-70
2022/10/10 10:09:19;;;;;;;26.00;6.55;;;;;;;-145.18;100.00;46564.69;6181304;23;20013;-70
2022/10/10 10:11:47;;;;;;;21.37;7.30;;;;;;;-145.18;100.00;46564.69;6182710;23;20426;-70
2022/10/10 10:14:35;;;;;;;15.53;7.83;;;;;;;-145.18;100.00;46562.72;6181848;23;20597;-71
2022/10/10 10:17:13;;;;;;;16.13;7.30;;;;;;;-145.18;100.00;46564.69;6182625;23;20009;-71
2022/10/10 10:19:42;;;;;;;13.97;6.83;;;;;;;-145.18;100.00;46545.16;6182257;23;20474;-70
2022/10/10 10:22:36;;;;;;;14.73;7.27;;;;;;;-145.18;100.00;46552.97;6182482;23;20009;-70
2022/10/10 10:25:35;;;;;;;14.10;7.07;;;;;;;-145.18;100.00;46543.19;6182129;23;20001;-70
2022/10/10 10:28:09;;;;;;;16.87;7.70;;;;;;;-145.18;100.00;46554.91;6182224;23;20434;-70
2022/10/10 10:30:35;;;;;;;12.13;6.73;;;;;;;-145.18;100.00;46551.00;6182185;23;20009;-70
2022/10/10 10:33:22;;;;;;;12.53;6.13;;;;;;;-145.18;100.00;46562.72;6182646;23;20009;-70
2022/10/10 10:36:08;;;;;;;15.50;6.80;;;;;;;-145.18;100.00;46562.72;6182403;23;20021;-70
2022/10/10 10:38:44;;;;;;;15.27;7.53;;;;;;;-145.18;100.00;46566.63;6181634;23;20096;-71
2022/10/10 10:41:36;;;;;;;14.97;6.80;;;;;;;-145.18;100.00;46564.69;6181133;23;20055;-70
2022/10/10 10:44:10;;;;;;;14.73;7.27;;;;;;;-145.18;100.00;46570.53;6180034;23;20024;-70
2022/10/10 10:47:03;;;;;;;14.80;7.13;;;;;;;-145.18;100.00;46560.78;6182366;23;20005;-71
2022/10/10 10:49:36;;;;;;;14.80;7.70;;;;;;;-145.18;100.00;46564.69;6181869;23;20009;-70
2022/10/10 10:52:36;;;;;;;14.87;7.60;;;;;;;-145.18;100.00;46562.72;6182467;23;20080;-70
2022/10/10 10:55:18;;;;;;;14.77;7.40;;;;;;;-145.18;100.00;46549.06;6182202;23;20005;-70
2022/10/10 10:58:09;;;;;;;15.13;7.50;;;;;;;-145.18;100.00;46549.06;6182724;23;20009;-70
2022/10/10 11:00:51;;;;;;;15.57;7.60;;;;;;;-145.18;100.00;46547.09;6180881;23;20350;-70
2022/10/10 11:03:22;;;;;;;14.10;7.77;;;;;;;-145.18;100.00;46551.00;6182228;23;20473;-71
2022/10/10 11:06:12;;;;;;;15.77;6.57;;;;;;;-145.18;100.00;46549.06;6182377;23;20009;-70
2022/10/10 11:09:05;;;;;;;14.30;7.63;;;;;;;-145.18;100.00;46545.16;6181760;23;20715;-71
2022/10/10 11:11:55;;;;;;;15.60;6.63;;;;;;;-145.18;100.00;46547.09;6181929;23;20047;-70
2022/10/10 11:14:46;;;;;;;19.07;8.33;;;;;;;-145.18;100.00;46545.16;6180598;23;20072;-70
2022/10/10 11:17:29;;;;;;;18.23;5.97;;;;;;;-145.18;100.00;46547.09;6182286;23;20007;-70
2022/10/10 11:20:00;;;;;;;16.43;6.23;;;;;;;-145.18;100.00;46545.16;6182332;23;20001;-70
2022/10/10 11:22:35;;;;;;;13.90;6.43;;;;;;;-145.18;100.00;46545.16;6184367;23;20057;-71
2022/10/10 11:25:11;;;;;;;12.33;6.13;;;;;;;-145.18;100.00;46552.97;6183537;23;20055;-71
2022/10/10 11:28:08;;;;;;;14.77;6.63;;;;;;;-145.18;100.00;46562.72;6183324;23;20001;-71
2022/10/10 11:30:42;;;;;;;12.23;5.97;;;;;;;-145.18;100.00;46570.53;6163463;23;20311;-71
2022/10/10 11:33:44;;;;;;;12.90;5.87;;;;;;;-145.18;100.00;46547.09;6184331;23;20001;-70
2022/10/10 11:36:17;;;;;;;16.50;7.20;;;;;;;-145.18;100.00;46547.09;6183675;23;20044;-70
2022/10/10 11:38:56;;;;;;;16.50;6.37;;;;;;;-145.18;100.00;46551.00;6183348;23;20021;-71
2022/10/10 11:41:24;;;;;;;11.07;6.40;;;;;;;-145.18;100.00;46547.09;6183703;23;20450;-71
2022/10/10 11:43:49;;;;;;;15.53;6.33;;;;;;;-145.18;100.00;46552.97;6182794;23;20005;-71
2022/10/10 11:46:22;;;;;;;15.47;6.73;;;;;;;-145.18;100.00;46549.06;6183432;23;20001;-71
2022/10/10 11:48:58;;;;;;;20.60;6.20;;;;;;;-145.18;100.00;46552.97;6183525;23;20091;-70
2022/10/10 11:51:33;;;;;;;13.63;5.77;;;;;;;-145.18;100.00;46558.81;6183873;23;20386;-70
2022/10/10 11:54:04;;;;;;;22.35;6.85;;;;;;;-145.18;100.00;46568.59;6183305;23;20076;-70